sensor_id;sensor_type;location;lat;lon;timestamp;pressure;altitude;pressure_sealevel;temperature;humidity
29815;BME280;16708;50.426;7.664;2022-08-21T00:01:26;988.90;;;14.26;90.66
29815;BME280;16708;50.426;7.664;2022-08-21T00:06:20;988.86;;;14.28;91.10
29815;BME280;16708;50.426;7.664;2022-08-21T00:11:15;988.89;;;14.23;91.50
29815;BME280;16708;50.426;7.664;2022-08-21T00:16:09;988.84;;;14.17;91.17
29815;BME280;16708;50.426;7.664;2022-08-21T00:21:03;988.89;;;13.92;94.00
29815;BME280;16708;50.426;7.664;2022-08-21T00:25:58;988.85;;;13.86;94.92
29815;BME280;16708;50.426;7.664;2022-08-21T00:30:52;988.79;;;13.99;94.64
29815;BME280;16708;50.426;7.664;2022-08-21T00:35:47;988.83;;;14.09;93.80
29815;BME280;16708;50.426;7.664;2022-08-21T00:40:41;988.80;;;14.04;94.65
29815;BME280;16708;50.426;7.664;2022-08-21T00:45:35;988.70;;;14.06;94.64
29815;BME280;16708;50.426;7.664;2022-08-21T00:50:29;988.64;;;14.02;93.92
29815;BME280;16708;50.426;7.664;2022-08-21T00:55:23;988.65;;;13.92;94.23
29815;BME280;16708;50.426;7.664;2022-08-21T01:00:18;988.61;;;13.78;95.71
29815;BME280;16708;50.426;7.664;2022-08-21T01:05:12;988.62;;;13.70;95.18
29815;BME280;16708;50.426;7.664;2022-08-21T01:10:07;988.68;;;13.60;96.82
29815;BME280;16708;50.426;7.664;2022-08-21T01:15:01;988.64;;;13.56;97.85
29815;BME280;16708;50.426;7.664;2022-08-21T01:19:55;988.64;;;13.42;99.52
29815;BME280;16708;50.426;7.664;2022-08-21T01:24:49;988.66;;;13.36;100.00
29815;BME280;16708;50.426;7.664;2022-08-21T01:29:44;988.71;;;13.44;100.00
29815;BME280;16708;50.426;7.664;2022-08-21T01:34:39;988.63;;;13.47;100.00
29815;BME280;16708;50.426;7.664;2022-08-21T01:39:33;988.64;;;13.50;100.00
29815;BME280;16708;50.426;7.664;2022-08-21T01:44:27;988.60;;;13.44;100.00
29815;BME280;16708;50.426;7.664;2022-08-21T01:49:21;988.56;;;13.35;100.00
29815;BME280;16708;50.426;7.664;2022-08-21T01:54:15;988.52;;;13.27;100.00
29815;BME280;16708;50.426;7.664;2022-08-21T01:59:09;988.48;;;13.30;100.00
29815;BME280;16708;50.426;7.664;2022-08-21T02:04:04;988.41;;;13.23;100.00
29815;BME280;16708;50.426;7.664;2022-08-21T02:08:58;988.47;;;13.20;100.00
29815;BME280;16708;50.426;7.664;2022-08-21T02:13:52;988.43;;;13.10;100.00
29815;BME280;16708;50.426;7.664;2022-08-21T02:18:46;988.30;;;12.99;100.00
29815;BME280;16708;50.426;7.664;2022-08-21T02:23:40;988.32;;;12.87;100.00
29815;BME280;16708;50.426;7.664;2022-08-21T02:28:35;988.39;;;12.80;100.00
29815;BME280;16708;50.426;7.664;2022-08-21T02:33:29;988.29;;;12.74;100.00
29815;BME280;16708;50.426;7.664;2022-08-21T02:38:23;988.31;;;12.71;100.00
29815;BME280;16708;50.426;7.664;2022-08-21T02:43:18;988.37;;;12.65;100.00
29815;BME280;16708;50.426;7.664;2022-08-21T02:48:12;988.34;;;12.63;100.00
29815;BME280;16708;50.426;7.664;2022-08-21T02:53:06;988.33;;;12.55;100.00
29815;BME280;16708;50.426;7.664;2022-08-21T02:58:01;988.28;;;12.47;100.00
29815;BME280;16708;50.426;7.664;2022-08-21T03:02:56;988.33;;;12.47;100.00
29815;BME280;16708;50.426;7.664;2022-08-21T03:07:49;988.32;;;12.46;100.00
29815;BME280;16708;50.426;7.664;2022-08-21T03:12:43;988.35;;;12.41;100.00
29815;BME280;16708;50.426;7.664;2022-08-21T03:17:38;988.23;;;12.31;100.00
29815;BME280;16708;50.426;7.664;2022-08-21T03:22:32;988.26;;;12.33;100.00
29815;BME280;16708;50.426;7.664;2022-08-21T03:27:26;988.36;;;12.23;100.00
29815;BME280;16708;50.426;7.664;2022-08-21T03:32:20;988.40;;;12.25;100.00
29815;BME280;16708;50.426;7.664;2022-08-21T03:37:15;988.43;;;12.23;100.00
29815;BME280;16708;50.426;7.664;2022-08-21T03:42:09;988.40;;;12.22;100.00
29815;BME280;16708;50.426;7.664;2022-08-21T03:47:04;988.45;;;12.27;100.00
29815;BME280;16708;50.426;7.664;2022-08-21T03:51:58;988.43;;;12.21;100.00
29815;BME280;16708;50.426;7.664;2022-08-21T03:56:52;988.41;;;12.16;100.00
29815;BME280;16708;50.426;7.664;2022-08-21T04:01:47;988.42;;;12.09;100.00
29815;BME280;16708;50.426;7.664;2022-08-21T04:06:42;988.49;;;12.10;100.00
29815;BME280;16708;50.426;7.664;2022-08-21T04:11:36;988.54;;;12.02;100.00
29815;BME280;16708;50.426;7.664;2022-08-21T04:16:30;988.58;;;11.98;100.00
29815;BME280;16708;50.426;7.664;2022-08-21T04:21:22;988.61;;;11.94;100.00
29815;BME280;16708;50.426;7.664;2022-08-21T04:26:17;988.62;;;11.82;100.00
29815;BME280;16708;50.426;7.664;2022-08-21T04:31:11;988.71;;;11.86;100.00
29815;BME280;16708;50.426;7.664;2022-08-21T04:36:06;988.73;;;11.90;100.00
29815;BME280;16708;50.426;7.664;2022-08-21T04:41:00;988.74;;;11.87;100.00
29815;BME280;16708;50.426;7.664;2022-08-21T04:45:52;988.78;;;11.94;100.00
29815;BME280;16708;50.426;7.664;2022-08-21T04:50:46;988.77;;;11.99;100.00
29815;BME280;16708;50.426;7.664;2022-08-21T04:55:40;988.89;;;12.04;100.00
29815;BME280;16708;50.426;7.664;2022-08-21T05:00:35;988.85;;;12.11;100.00
29815;BME280;16708;50.426;7.664;2022-08-21T05:05:30;988.92;;;12.21;100.00
29815;BME280;16708;50.426;7.664;2022-08-21T05:10:24;988.84;;;12.40;100.00
29815;BME280;16708;50.426;7.664;2022-08-21T05:15:18;988.87;;;12.56;100.00
29815;BME280;16708;50.426;7.664;2022-08-21T05:20:12;988.91;;;12.83;100.00
29815;BME280;16708;50.426;7.664;2022-08-21T05:25:07;988.88;;;12.99;100.00
29815;BME280;16708;50.426;7.664;2022-08-21T05:30:02;988.97;;;13.14;100.00
29815;BME280;16708;50.426;7.664;2022-08-21T05:34:56;988.91;;;13.21;100.00
29815;BME280;16708;50.426;7.664;2022-08-21T05:39:48;988.98;;;13.40;100.00
29815;BME280;16708;50.426;7.664;2022-08-21T05:44:43;988.94;;;13.68;100.00
29815;BME280;16708;50.426;7.664;2022-08-21T05:49:37;988.91;;;13.86;100.00
29815;BME280;16708;50.426;7.664;2022-08-21T05:54:32;988.95;;;14.11;100.00
29815;BME280;16708;50.426;7.664;2022-08-21T05:59:26;988.96;;;14.56;100.00
29815;BME280;16708;50.426;7.664;2022-08-21T06:04:20;988.85;;;14.80;100.00
29815;BME280;16708;50.426;7.664;2022-08-21T06:09:15;988.76;;;15.10;100.00
29815;BME280;16708;50.426;7.664;2022-08-21T06:14:09;988.80;;;15.39;100.00
29815;BME280;16708;50.426;7.664;2022-08-21T06:19:04;988.77;;;15.60;100.00
29815;BME280;16708;50.426;7.664;2022-08-21T06:23:58;988.82;;;15.79;100.00
29815;BME280;16708;50.426;7.664;2022-08-21T06:28:52;988.88;;;16.27;100.00
29815;BME280;16708;50.426;7.664;2022-08-21T06:33:47;988.86;;;16.39;100.00
29815;BME280;16708;50.426;7.664;2022-08-21T06:38:42;988.83;;;16.77;100.00
29815;BME280;16708;50.426;7.664;2022-08-21T06:43:37;988.80;;;16.87;97.53
29815;BME280;16708;50.426;7.664;2022-08-21T06:48:31;988.85;;;17.00;95.58
29815;BME280;16708;50.426;7.664;2022-08-21T06:53:26;988.82;;;17.09;94.36
29815;BME280;16708;50.426;7.664;2022-08-21T06:58:18;988.85;;;17.30;94.48
29815;BME280;16708;50.426;7.664;2022-08-21T07:03:13;988.90;;;17.65;94.94
29815;BME280;16708;50.426;7.664;2022-08-21T07:08:07;988.89;;;17.50;92.51
29815;BME280;16708;50.426;7.664;2022-08-21T07:13:02;988.88;;;17.59;92.57
29815;BME280;16708;50.426;7.664;2022-08-21T07:17:57;988.89;;;17.90;89.86
29815;BME280;16708;50.426;7.664;2022-08-21T07:22:51;988.79;;;17.92;88.47
29815;BME280;16708;50.426;7.664;2022-08-21T07:27:45;988.73;;;17.93;87.96
29815;BME280;16708;50.426;7.664;2022-08-21T07:32:39;988.74;;;17.97;88.22
29815;BME280;16708;50.426;7.664;2022-08-21T07:37:34;988.74;;;18.41;86.25
29815;BME280;16708;50.426;7.664;2022-08-21T07:42:29;988.71;;;18.48;86.12
29815;BME280;16708;50.426;7.664;2022-08-21T07:47:23;988.72;;;18.80;85.46
29815;BME280;16708;50.426;7.664;2022-08-21T07:52:18;988.66;;;19.03;83.74
29815;BME280;16708;50.426;7.664;2022-08-21T07:57:13;988.61;;;19.22;82.86
29815;BME280;16708;50.426;7.664;2022-08-21T08:02:08;988.63;;;19.63;79.54
29815;BME280;16708;50.426;7.664;2022-08-21T08:07:02;988.61;;;19.99;78.70
29815;BME280;16708;50.426;7.664;2022-08-21T08:11:56;988.65;;;20.50;76.03
29815;BME280;16708;50.426;7.664;2022-08-21T08:16:49;988.71;;;20.52;74.88
29815;BME280;16708;50.426;7.664;2022-08-21T08:21:44;988.75;;;20.53;71.20
29815;BME280;16708;50.426;7.664;2022-08-21T08:26:39;988.78;;;20.76;71.71
29815;BME280;16708;50.426;7.664;2022-08-21T08:31:34;988.76;;;20.52;70.63
29815;BME280;16708;50.426;7.664;2022-08-21T08:36:28;988.77;;;20.49;69.46
29815;BME280;16708;50.426;7.664;2022-08-21T08:41:21;988.73;;;20.97;68.23
29815;BME280;16708;50.426;7.664;2022-08-21T08:46:16;988.67;;;21.44;63.76
29815;BME280;16708;50.426;7.664;2022-08-21T08:51:10;988.66;;;21.53;60.19
29815;BME280;16708;50.426;7.664;2022-08-21T08:56:04;988.54;;;21.83;57.97
29815;BME280;16708;50.426;7.664;2022-08-21T09:00:59;988.58;;;22.47;56.73
29815;BME280;16708;50.426;7.664;2022-08-21T09:10:49;988.54;;;22.49;49.85
29815;BME280;16708;50.426;7.664;2022-08-21T09:20:39;988.52;;;23.20;48.83
29815;BME280;16708;50.426;7.664;2022-08-21T09:25:33;988.53;;;22.79;47.43
29815;BME280;16708;50.426;7.664;2022-08-21T09:30:28;988.44;;;23.33;47.55
29815;BME280;16708;50.426;7.664;2022-08-21T09:50:10;988.34;;;28.02;33.88
29815;BME280;16708;50.426;7.664;2022-08-21T10:00:00;988.17;;;27.89;34.04
29815;BME280;16708;50.426;7.664;2022-08-21T10:04:55;988.15;;;29.63;30.56
29815;BME280;16708;50.426;7.664;2022-08-21T10:09:51;988.09;;;29.71;30.71
29815;BME280;16708;50.426;7.664;2022-08-21T10:14:47;988.00;;;30.90;28.10
29815;BME280;16708;50.426;7.664;2022-08-21T10:19:42;988.02;;;31.36;26.60
29815;BME280;16708;50.426;7.664;2022-08-21T10:24:38;988.02;;;31.33;27.96
29815;BME280;16708;50.426;7.664;2022-08-21T10:29:33;987.89;;;29.62;28.24
29815;BME280;16708;50.426;7.664;2022-08-21T10:34:27;987.86;;;29.05;30.02
29815;BME280;16708;50.426;7.664;2022-08-21T10:49:09;987.79;;;30.20;26.49
29815;BME280;16708;50.426;7.664;2022-08-21T10:54:04;987.74;;;31.67;26.53
29815;BME280;16708;50.426;7.664;2022-08-21T10:58:59;987.75;;;29.98;26.68
29815;BME280;16708;50.426;7.664;2022-08-21T11:03:52;987.91;;;28.19;29.43
29815;BME280;16708;50.426;7.664;2022-08-21T11:08:46;987.73;;;30.66;26.47
29815;BME280;16708;50.426;7.664;2022-08-21T11:13:42;987.65;;;29.20;27.97
29815;BME280;16708;50.426;7.664;2022-08-21T11:18:39;987.65;;;30.17;27.01
29815;BME280;16708;50.426;7.664;2022-08-21T11:23:31;987.65;;;31.93;24.82
29815;BME280;16708;50.426;7.664;2022-08-21T11:28:26;987.66;;;31.07;25.46
29815;BME280;16708;50.426;7.664;2022-08-21T11:33:21;987.79;;;32.23;23.68
29815;BME280;16708;50.426;7.664;2022-08-21T11:38:16;987.59;;;31.47;24.41
29815;BME280;16708;50.426;7.664;2022-08-21T11:48:06;987.61;;;32.69;23.01
29815;BME280;16708;50.426;7.664;2022-08-21T11:53:02;987.51;;;33.15;22.71
29815;BME280;16708;50.426;7.664;2022-08-21T11:57:57;987.54;;;33.11;21.97
29815;BME280;16708;50.426;7.664;2022-08-21T12:02:52;987.51;;;32.08;23.41
29815;BME280;16708;50.426;7.664;2022-08-21T12:07:46;987.46;;;31.95;23.63
29815;BME280;16708;50.426;7.664;2022-08-21T12:12:40;987.41;;;33.27;22.24
29815;BME280;16708;50.426;7.664;2022-08-21T12:22:30;987.47;;;32.35;23.29
29815;BME280;16708;50.426;7.664;2022-08-21T12:27:25;987.32;;;33.20;22.39
29815;BME280;16708;50.426;7.664;2022-08-21T12:32:20;987.30;;;33.18;22.55
29815;BME280;16708;50.426;7.664;2022-08-21T12:37:15;987.26;;;34.47;21.49
29815;BME280;16708;50.426;7.664;2022-08-21T12:42:10;987.28;;;35.57;20.23
29815;BME280;16708;50.426;7.664;2022-08-21T12:47:06;987.20;;;36.28;18.46
29815;BME280;16708;50.426;7.664;2022-08-21T12:52:02;987.13;;;36.36;18.31
29815;BME280;16708;50.426;7.664;2022-08-21T12:56:56;987.12;;;35.35;19.05
29815;BME280;16708;50.426;7.664;2022-08-21T13:01:51;987.06;;;33.94;21.17
29815;BME280;16708;50.426;7.664;2022-08-21T13:06:46;987.10;;;33.65;21.34
29815;BME280;16708;50.426;7.664;2022-08-21T13:11:41;987.04;;;34.26;20.09
29815;BME280;16708;50.426;7.664;2022-08-21T13:16:36;986.98;;;34.58;20.00
29815;BME280;16708;50.426;7.664;2022-08-21T13:21:31;986.94;;;36.02;19.01
29815;BME280;16708;50.426;7.664;2022-08-21T13:26:25;986.95;;;36.01;18.13
29815;BME280;16708;50.426;7.664;2022-08-21T13:36:15;986.88;;;37.30;17.35
29815;BME280;16708;50.426;7.664;2022-08-21T13:41:10;986.83;;;36.15;17.92
29815;BME280;16708;50.426;7.664;2022-08-21T13:46:05;986.81;;;38.49;16.53
29815;BME280;16708;50.426;7.664;2022-08-21T13:51:00;986.72;;;35.80;18.37
29815;BME280;16708;50.426;7.664;2022-08-21T14:00:46;986.65;;;31.93;22.22
29815;BME280;16708;50.426;7.664;2022-08-21T14:05:40;986.60;;;34.97;19.50
29815;BME280;16708;50.426;7.664;2022-08-21T14:10:35;986.51;;;36.24;17.18
29815;BME280;16708;50.426;7.664;2022-08-21T14:15:30;986.53;;;37.12;16.50
29815;BME280;16708;50.426;7.664;2022-08-21T14:20:25;986.55;;;37.84;16.68
29815;BME280;16708;50.426;7.664;2022-08-21T14:25:19;986.48;;;34.47;19.28
29815;BME280;16708;50.426;7.664;2022-08-21T14:30:14;986.49;;;35.55;17.98
29815;BME280;16708;50.426;7.664;2022-08-21T14:35:08;986.46;;;37.31;16.84
29815;BME280;16708;50.426;7.664;2022-08-21T14:40:03;986.39;;;35.29;18.85
29815;BME280;16708;50.426;7.664;2022-08-21T14:44:55;986.34;;;33.63;20.66
29815;BME280;16708;50.426;7.664;2022-08-21T14:49:50;986.40;;;38.36;15.68
29815;BME280;16708;50.426;7.664;2022-08-21T14:54:45;986.42;;;37.76;16.18
29815;BME280;16708;50.426;7.664;2022-08-21T14:59:39;986.46;;;37.09;16.45
29815;BME280;16708;50.426;7.664;2022-08-21T15:04:34;986.40;;;34.70;19.07
29815;BME280;16708;50.426;7.664;2022-08-21T15:09:29;986.34;;;35.92;18.54
29815;BME280;16708;50.426;7.664;2022-08-21T15:14:23;986.24;;;37.62;16.85
29815;BME280;16708;50.426;7.664;2022-08-21T15:19:18;986.23;;;36.18;17.69
29815;BME280;16708;50.426;7.664;2022-08-21T15:24:12;986.15;;;33.64;20.61
29815;BME280;16708;50.426;7.664;2022-08-21T15:29:06;986.11;;;33.82;20.51
29815;BME280;16708;50.426;7.664;2022-08-21T15:33:59;986.13;;;33.16;21.31
29815;BME280;16708;50.426;7.664;2022-08-21T15:38:53;986.10;;;31.80;22.85
29815;BME280;16708;50.426;7.664;2022-08-21T15:43:46;986.08;;;31.76;23.43
29815;BME280;16708;50.426;7.664;2022-08-21T15:48:40;986.14;;;31.08;24.10
29815;BME280;16708;50.426;7.664;2022-08-21T15:53:33;986.13;;;29.86;25.43
29815;BME280;16708;50.426;7.664;2022-08-21T15:58:27;986.07;;;30.29;24.66
29815;BME280;16708;50.426;7.664;2022-08-21T16:03:21;986.07;;;30.54;24.22
29815;BME280;16708;50.426;7.664;2022-08-21T16:08:15;985.99;;;29.51;26.41
29815;BME280;16708;50.426;7.664;2022-08-21T16:13:09;985.90;;;29.17;27.31
29815;BME280;16708;50.426;7.664;2022-08-21T16:18:03;985.95;;;29.15;26.75
29815;BME280;16708;50.426;7.664;2022-08-21T16:22:56;985.90;;;29.32;27.47
29815;BME280;16708;50.426;7.664;2022-08-21T16:27:50;985.89;;;28.95;27.74
29815;BME280;16708;50.426;7.664;2022-08-21T16:32:43;985.80;;;29.32;27.31
29815;BME280;16708;50.426;7.664;2022-08-21T16:37:38;985.80;;;29.14;27.38
29815;BME280;16708;50.426;7.664;2022-08-21T16:42:32;985.73;;;28.37;28.51
29815;BME280;16708;50.426;7.664;2022-08-21T16:47:25;985.67;;;28.48;28.54
29815;BME280;16708;50.426;7.664;2022-08-21T16:52:19;985.70;;;27.64;29.44
29815;BME280;16708;50.426;7.664;2022-08-21T16:57:13;985.69;;;27.85;29.18
29815;BME280;16708;50.426;7.664;2022-08-21T17:02:07;985.67;;;27.50;29.87
29815;BME280;16708;50.426;7.664;2022-08-21T17:07:01;985.63;;;26.94;30.17
29815;BME280;16708;50.426;7.664;2022-08-21T17:11:55;985.63;;;26.57;31.16
29815;BME280;16708;50.426;7.664;2022-08-21T17:16:50;985.61;;;26.31;32.07
29815;BME280;16708;50.426;7.664;2022-08-21T17:21:44;985.66;;;26.10;32.29
29815;BME280;16708;50.426;7.664;2022-08-21T17:26:38;985.61;;;26.07;32.74
29815;BME280;16708;50.426;7.664;2022-08-21T17:31:33;985.56;;;25.71;32.96
29815;BME280;16708;50.426;7.664;2022-08-21T17:36:25;985.68;;;25.42;34.32
29815;BME280;16708;50.426;7.664;2022-08-21T17:41:20;985.73;;;25.25;34.75
29815;BME280;16708;50.426;7.664;2022-08-21T17:46:14;985.75;;;25.43;35.24
29815;BME280;16708;50.426;7.664;2022-08-21T17:51:09;985.76;;;25.37;35.25
29815;BME280;16708;50.426;7.664;2022-08-21T17:56:03;985.73;;;25.02;35.96
29815;BME280;16708;50.426;7.664;2022-08-21T18:00:58;985.75;;;24.72;36.67
29815;BME280;16708;50.426;7.664;2022-08-21T18:05:52;985.73;;;24.56;36.95
29815;BME280;16708;50.426;7.664;2022-08-21T18:10:47;985.84;;;24.40;37.28
29815;BME280;16708;50.426;7.664;2022-08-21T18:15:41;985.83;;;24.17;37.68
29815;BME280;16708;50.426;7.664;2022-08-21T18:20:36;985.98;;;24.12;38.20
29815;BME280;16708;50.426;7.664;2022-08-21T18:25:30;986.08;;;23.81;39.34
29815;BME280;16708;50.426;7.664;2022-08-21T18:30:24;986.13;;;23.74;39.38
29815;BME280;16708;50.426;7.664;2022-08-21T18:35:19;986.19;;;23.50;40.59
29815;BME280;16708;50.426;7.664;2022-08-21T18:40:14;986.28;;;23.31;41.03
29815;BME280;16708;50.426;7.664;2022-08-21T18:45:08;986.27;;;23.24;42.10
29815;BME280;16708;50.426;7.664;2022-08-21T18:50:03;986.21;;;23.14;43.58
29815;BME280;16708;50.426;7.664;2022-08-21T18:54:57;986.38;;;23.00;44.73
29815;BME280;16708;50.426;7.664;2022-08-21T18:59:50;986.39;;;22.81;45.28
29815;BME280;16708;50.426;7.664;2022-08-21T19:04:45;986.43;;;22.80;45.98
29815;BME280;16708;50.426;7.664;2022-08-21T19:09:40;986.49;;;22.59;46.81
29815;BME280;16708;50.426;7.664;2022-08-21T19:14:35;986.55;;;22.51;46.94
29815;BME280;16708;50.426;7.664;2022-08-21T19:19:32;986.62;;;22.53;47.33
29815;BME280;16708;50.426;7.664;2022-08-21T19:24:24;986.56;;;22.39;47.63
29815;BME280;16708;50.426;7.664;2022-08-21T19:29:18;986.56;;;22.31;48.09
29815;BME280;16708;50.426;7.664;2022-08-21T19:34:13;986.53;;;22.16;48.43
29815;BME280;16708;50.426;7.664;2022-08-21T19:39:08;986.58;;;21.98;49.14
29815;BME280;16708;50.426;7.664;2022-08-21T19:44:02;986.64;;;21.98;49.06
29815;BME280;16708;50.426;7.664;2022-08-21T19:48:56;986.59;;;21.68;50.00
29815;BME280;16708;50.426;7.664;2022-08-21T19:53:51;986.63;;;21.60;50.66
29815;BME280;16708;50.426;7.664;2022-08-21T19:58:46;986.71;;;21.42;51.74
29815;BME280;16708;50.426;7.664;2022-08-21T20:03:40;986.74;;;20.53;58.03
29815;BME280;16708;50.426;7.664;2022-08-21T20:08:34;986.70;;;20.51;59.18
29815;BME280;16708;50.426;7.664;2022-08-21T20:13:28;986.65;;;20.51;58.77
29815;BME280;16708;50.426;7.664;2022-08-21T20:18:22;986.69;;;20.45;60.68
29815;BME280;16708;50.426;7.664;2022-08-21T20:23:16;986.68;;;20.43;60.46
29815;BME280;16708;50.426;7.664;2022-08-21T20:28:11;986.73;;;20.12;61.55
29815;BME280;16708;50.426;7.664;2022-08-21T20:33:06;986.76;;;19.68;63.91
29815;BME280;16708;50.426;7.664;2022-08-21T20:38:00;986.78;;;19.75;65.03
29815;BME280;16708;50.426;7.664;2022-08-21T20:42:52;986.74;;;19.84;64.98
29815;BME280;16708;50.426;7.664;2022-08-21T20:47:47;986.66;;;19.82;64.53
29815;BME280;16708;50.426;7.664;2022-08-21T20:52:42;986.70;;;19.67;66.09
29815;BME280;16708;50.426;7.664;2022-08-21T20:57:37;986.81;;;19.56;66.79
29815;BME280;16708;50.426;7.664;2022-08-21T21:02:30;986.83;;;19.34;67.16
29815;BME280;16708;50.426;7.664;2022-08-21T21:07:23;986.89;;;19.15;68.45
29815;BME280;16708;50.426;7.664;2022-08-21T21:12:18;986.95;;;19.17;68.70
29815;BME280;16708;50.426;7.664;2022-08-21T21:17:13;987.05;;;19.17;69.42
29815;BME280;16708;50.426;7.664;2022-08-21T21:22:07;986.97;;;19.17;69.48
29815;BME280;16708;50.426;7.664;2022-08-21T21:27:02;986.87;;;19.08;69.99
29815;BME280;16708;50.426;7.664;2022-08-21T21:31:59;986.94;;;19.05;70.46
29815;BME280;16708;50.426;7.664;2022-08-21T21:56:29;987.04;;;19.03;69.23
29815;BME280;16708;50.426;7.664;2022-08-21T22:01:23;986.97;;;19.06;68.82
29815;BME280;16708;50.426;7.664;2022-08-21T22:06:18;987.02;;;19.00;70.07
29815;BME280;16708;50.426;7.664;2022-08-21T22:11:12;987.05;;;18.93;69.78
29815;BME280;16708;50.426;7.664;2022-08-21T22:16:07;987.02;;;18.66;72.74
29815;BME280;16708;50.426;7.664;2022-08-21T22:21:02;987.00;;;18.53;74.30
29815;BME280;16708;50.426;7.664;2022-08-21T22:25:56;986.95;;;18.57;74.34
29815;BME280;16708;50.426;7.664;2022-08-21T22:30:51;987.12;;;18.50;75.87
29815;BME280;16708;50.426;7.664;2022-08-21T22:35:44;987.08;;;18.41;76.69
29815;BME280;16708;50.426;7.664;2022-08-21T22:40:39;987.07;;;18.51;76.26
29815;BME280;16708;50.426;7.664;2022-08-21T22:50:29;986.95;;;18.38;77.20
29815;BME280;16708;50.426;7.664;2022-08-21T22:55:23;987.13;;;18.49;77.15
29815;BME280;16708;50.426;7.664;2022-08-21T23:10:08;987.13;;;18.60;75.07
29815;BME280;16708;50.426;7.664;2022-08-21T23:15:03;987.07;;;18.52;75.28
29815;BME280;16708;50.426;7.664;2022-08-21T23:19:58;987.06;;;18.38;77.63
29815;BME280;16708;50.426;7.664;2022-08-21T23:29:47;987.09;;;17.74;80.64
29815;BME280;16708;50.426;7.664;2022-08-21T23:34:42;987.06;;;17.64;82.79
29815;BME280;16708;50.426;7.664;2022-08-21T23:39:37;987.06;;;17.65;82.90
29815;BME280;16708;50.426;7.664;2022-08-21T23:44:31;987.15;;;17.66;83.02
29815;BME280;16708;50.426;7.664;2022-08-21T23:49:26;987.11;;;17.44;85.66
29815;BME280;16708;50.426;7.664;2022-08-21T23:59:15;986.97;;;17.49;83.84
